sensor_id;sensor_type;location;lat;lon;timestamp;pressure;altitude;pressure_sealevel;temperature;humidity
75852;BME280;64500;52.632;20.656;2023-07-28T00:01:52;99523.52;;;36.81;20.67
75852;BME280;64500;52.632;20.656;2023-07-28T00:04:23;99520.38;;;36.81;20.69
75852;BME280;64500;52.632;20.656;2023-07-28T00:06:49;99516.86;;;36.81;20.62
75852;BME280;64500;52.632;20.656;2023-07-28T00:09:16;99517.97;;;36.71;20.66
75852;BME280;64500;52.632;20.656;2023-07-28T00:11:43;99515.39;;;36.86;20.48
75852;BME280;64500;52.632;20.656;2023-07-28T00:14:10;99518.79;;;36.87;20.60
75852;BME280;64500;52.632;20.656;2023-07-28T00:16:37;99519.72;;;36.90;20.64
75852;BME280;64500;52.632;20.656;2023-07-28T00:19:04;99515.20;;;36.98;20.49
75852;BME280;64500;52.632;20.656;2023-07-28T00:21:30;99511.31;;;36.97;20.42
75852;BME280;64500;52.632;20.656;2023-07-28T00:23:58;99512.30;;;36.93;20.51
75852;BME280;64500;52.632;20.656;2023-07-28T00:26:36;99508.52;;;36.93;20.50
75852;BME280;64500;52.632;20.656;2023-07-28T00:29:06;99506.98;;;36.89;20.53
75852;BME280;64500;52.632;20.656;2023-07-28T00:31:37;99511.45;;;36.88;20.54
75852;BME280;64500;52.632;20.656;2023-07-28T00:34:04;99505.75;;;36.89;20.23
75852;BME280;64500;52.632;20.656;2023-07-28T00:36:33;99502.57;;;36.88;20.35
75852;BME280;64500;52.632;20.656;2023-07-28T00:39:00;99503.30;;;36.84;20.53
75852;BME280;64500;52.632;20.656;2023-07-28T00:41:27;99504.73;;;36.86;20.63
75852;BME280;64500;52.632;20.656;2023-07-28T00:43:57;99506.89;;;36.90;20.56
75852;BME280;64500;52.632;20.656;2023-07-28T00:46:24;99508.13;;;36.96;20.53
75852;BME280;64500;52.632;20.656;2023-07-28T00:48:51;99506.25;;;36.96;20.44
75852;BME280;64500;52.632;20.656;2023-07-28T00:51:19;99504.40;;;36.95;20.51
75852;BME280;64500;52.632;20.656;2023-07-28T00:53:46;99499.45;;;36.94;20.39
75852;BME280;64500;52.632;20.656;2023-07-28T00:56:13;99496.90;;;36.97;20.60
75852;BME280;64500;52.632;20.656;2023-07-28T00:58:45;99490.41;;;37.00;20.44
75852;BME280;64500;52.632;20.656;2023-07-28T01:01:18;99486.13;;;36.99;20.35
75852;BME280;64500;52.632;20.656;2023-07-28T01:03:45;99476.30;;;37.00;20.39
75852;BME280;64500;52.632;20.656;2023-07-28T01:06:18;99469.35;;;36.95;20.44
75852;BME280;64500;52.632;20.656;2023-07-28T01:09:06;99468.02;;;36.96;20.29
75852;BME280;64500;52.632;20.656;2023-07-28T01:11:36;99469.27;;;37.02;20.37
75852;BME280;64500;52.632;20.656;2023-07-28T01:14:12;99468.15;;;36.95;20.47
75852;BME280;64500;52.632;20.656;2023-07-28T01:16:39;99467.36;;;37.00;20.47
75852;BME280;64500;52.632;20.656;2023-07-28T01:19:06;99463.39;;;37.15;20.29
75852;BME280;64500;52.632;20.656;2023-07-28T01:21:33;99471.34;;;37.09;20.33
75852;BME280;64500;52.632;20.656;2023-07-28T01:24:20;99465.88;;;37.13;20.31
75852;BME280;64500;52.632;20.656;2023-07-28T01:26:48;99460.34;;;37.16;20.36
75852;BME280;64500;52.632;20.656;2023-07-28T01:29:17;99456.23;;;37.19;20.44
75852;BME280;64500;52.632;20.656;2023-07-28T01:31:48;99451.32;;;37.24;20.43
75852;BME280;64500;52.632;20.656;2023-07-28T01:34:15;99449.59;;;37.25;20.21
75852;BME280;64500;52.632;20.656;2023-07-28T01:36:42;99448.12;;;37.30;20.23
75852;BME280;64500;52.632;20.656;2023-07-28T01:39:20;99445.30;;;37.31;20.21
75852;BME280;64500;52.632;20.656;2023-07-28T01:41:50;99440.98;;;37.26;20.42
75852;BME280;64500;52.632;20.656;2023-07-28T01:44:17;99447.08;;;37.38;20.34
75852;BME280;64500;52.632;20.656;2023-07-28T01:46:43;99446.52;;;37.27;20.36
75852;BME280;64500;52.632;20.656;2023-07-28T01:49:10;99437.80;;;37.20;20.50
75852;BME280;64500;52.632;20.656;2023-07-28T01:51:40;99437.89;;;37.23;20.45
75852;BME280;64500;52.632;20.656;2023-07-28T01:54:07;99437.20;;;37.23;20.46
75852;BME280;64500;52.632;20.656;2023-07-28T01:56:34;99439.48;;;37.30;20.36
75852;BME280;64500;52.632;20.656;2023-07-28T01:59:03;99436.08;;;37.16;20.36
75852;BME280;64500;52.632;20.656;2023-07-28T02:01:30;99436.84;;;37.16;20.48
75852;BME280;64500;52.632;20.656;2023-07-28T02:03:58;99437.83;;;37.18;20.43
75852;BME280;64500;52.632;20.656;2023-07-28T02:06:24;99438.73;;;37.33;20.37
75852;BME280;64500;52.632;20.656;2023-07-28T02:08:51;99433.83;;;37.25;20.44
75852;BME280;64500;52.632;20.656;2023-07-28T02:11:18;99439.10;;;37.17;20.27
75852;BME280;64500;52.632;20.656;2023-07-28T02:13:48;99437.61;;;37.12;20.56
75852;BME280;64500;52.632;20.656;2023-07-28T02:16:15;99440.07;;;37.22;20.63
75852;BME280;64500;52.632;20.656;2023-07-28T02:18:42;99439.50;;;37.30;20.51
75852;BME280;64500;52.632;20.656;2023-07-28T02:21:09;99437.45;;;37.33;20.46
75852;BME280;64500;52.632;20.656;2023-07-28T02:23:35;99438.42;;;37.42;20.45
75852;BME280;64500;52.632;20.656;2023-07-28T02:26:04;99441.44;;;37.53;20.47
75852;BME280;64500;52.632;20.656;2023-07-28T02:28:34;99440.45;;;37.49;20.47
75852;BME280;64500;52.632;20.656;2023-07-28T02:31:03;99436.33;;;37.46;20.57
75852;BME280;64500;52.632;20.656;2023-07-28T02:33:30;99436.52;;;37.58;20.41
75852;BME280;64500;52.632;20.656;2023-07-28T02:36:07;99439.63;;;37.63;20.47
75852;BME280;64500;52.632;20.656;2023-07-28T02:38:38;99433.79;;;37.75;20.40
75852;BME280;64500;52.632;20.656;2023-07-28T02:41:05;99431.28;;;37.79;20.50
75852;BME280;64500;52.632;20.656;2023-07-28T02:43:34;99423.95;;;37.52;20.56
75852;BME280;64500;52.632;20.656;2023-07-28T02:46:01;99420.17;;;37.45;20.47
75852;BME280;64500;52.632;20.656;2023-07-28T02:48:28;99422.95;;;37.54;20.52
75852;BME280;64500;52.632;20.656;2023-07-28T02:50:55;99421.96;;;37.71;20.35
75852;BME280;64500;52.632;20.656;2023-07-28T02:53:22;99422.84;;;37.56;20.44
75852;BME280;64500;52.632;20.656;2023-07-28T02:55:49;99419.08;;;37.51;20.41
75852;BME280;64500;52.632;20.656;2023-07-28T02:58:19;99413.27;;;37.49;20.38
75852;BME280;64500;52.632;20.656;2023-07-28T03:00:51;99416.16;;;37.46;20.41
75852;BME280;64500;52.632;20.656;2023-07-28T03:03:18;99408.23;;;37.57;20.49
75852;BME280;64500;52.632;20.656;2023-07-28T03:05:45;99412.31;;;37.52;20.38
75852;BME280;64500;52.632;20.656;2023-07-28T03:08:12;99409.23;;;37.58;20.42
75852;BME280;64500;52.632;20.656;2023-07-28T03:10:38;99407.14;;;37.82;20.23
75852;BME280;64500;52.632;20.656;2023-07-28T03:13:05;99409.39;;;37.90;20.23
75852;BME280;64500;52.632;20.656;2023-07-28T03:15:32;99402.73;;;37.81;20.29
75852;BME280;64500;52.632;20.656;2023-07-28T03:18:02;99395.14;;;37.80;20.36
75852;BME280;64500;52.632;20.656;2023-07-28T03:20:29;99393.19;;;37.87;20.35
75852;BME280;64500;52.632;20.656;2023-07-28T03:22:56;99388.45;;;37.78;20.46
75852;BME280;64500;52.632;20.656;2023-07-28T03:25:23;99383.78;;;37.77;20.44
75852;BME280;64500;52.632;20.656;2023-07-28T03:27:50;99382.70;;;37.83;20.53
75852;BME280;64500;52.632;20.656;2023-07-28T03:30:19;99383.19;;;37.85;20.40
75852;BME280;64500;52.632;20.656;2023-07-28T03:32:46;99381.27;;;37.96;20.26
75852;BME280;64500;52.632;20.656;2023-07-28T03:35:13;99382.74;;;37.88;20.54
75852;BME280;64500;52.632;20.656;2023-07-28T03:37:43;99376.94;;;37.89;20.47
75852;BME280;64500;52.632;20.656;2023-07-28T03:40:12;99382.86;;;37.89;20.47
75852;BME280;64500;52.632;20.656;2023-07-28T03:42:39;99385.31;;;37.98;20.50
75852;BME280;64500;52.632;20.656;2023-07-28T03:45:06;99388.61;;;38.11;20.35
75852;BME280;64500;52.632;20.656;2023-07-28T03:47:35;99383.05;;;38.24;20.16
75852;BME280;64500;52.632;20.656;2023-07-28T03:50:03;99377.97;;;38.13;20.26
75852;BME280;64500;52.632;20.656;2023-07-28T03:52:30;99376.40;;;37.85;20.49
75852;BME280;64500;52.632;20.656;2023-07-28T03:55:00;99378.30;;;37.84;20.51
75852;BME280;64500;52.632;20.656;2023-07-28T03:57:30;99374.30;;;37.82;20.70
75852;BME280;64500;52.632;20.656;2023-07-28T03:59:59;99375.17;;;37.78;20.61
75852;BME280;64500;52.632;20.656;2023-07-28T04:02:26;99373.85;;;37.85;20.52
75852;BME280;64500;52.632;20.656;2023-07-28T04:04:55;99372.37;;;37.85;20.60
75852;BME280;64500;52.632;20.656;2023-07-28T04:07:25;99377.35;;;38.03;20.44
75852;BME280;64500;52.632;20.656;2023-07-28T04:09:54;99375.05;;;37.98;20.61
75852;BME280;64500;52.632;20.656;2023-07-28T04:12:24;99375.86;;;37.90;20.59
75852;BME280;64500;52.632;20.656;2023-07-28T04:14:53;99380.70;;;38.08;20.33
75852;BME280;64500;52.632;20.656;2023-07-28T04:17:20;99373.90;;;38.19;20.39
75852;BME280;64500;52.632;20.656;2023-07-28T04:19:47;99377.37;;;38.23;20.37
75852;BME280;64500;52.632;20.656;2023-07-28T04:22:17;99378.05;;;38.36;20.34
75852;BME280;64500;52.632;20.656;2023-07-28T04:24:47;99376.36;;;38.38;20.39
75852;BME280;64500;52.632;20.656;2023-07-28T04:27:17;99376.41;;;38.39;20.25
75852;BME280;64500;52.632;20.656;2023-07-28T04:29:44;99377.70;;;38.42;20.57
75852;BME280;64500;52.632;20.656;2023-07-28T04:32:16;99374.42;;;38.57;20.57
75852;BME280;64500;52.632;20.656;2023-07-28T04:34:43;99369.02;;;38.54;20.52
75852;BME280;64500;52.632;20.656;2023-07-28T04:37:10;99367.06;;;38.49;20.52
75852;BME280;64500;52.632;20.656;2023-07-28T04:39:40;99360.74;;;38.57;20.53
75852;BME280;64500;52.632;20.656;2023-07-28T04:42:07;99351.81;;;38.70;20.56
75852;BME280;64500;52.632;20.656;2023-07-28T04:44:37;99355.46;;;38.93;20.46
75852;BME280;64500;52.632;20.656;2023-07-28T04:47:03;99351.00;;;39.15;20.41
75852;BME280;64500;52.632;20.656;2023-07-28T04:49:30;99349.15;;;39.32;20.27
75852;BME280;64500;52.632;20.656;2023-07-28T04:51:59;99346.95;;;39.39;20.16
75852;BME280;64500;52.632;20.656;2023-07-28T04:54:26;99352.52;;;39.51;20.13
75852;BME280;64500;52.632;20.656;2023-07-28T04:56:58;99349.72;;;39.69;20.10
75852;BME280;64500;52.632;20.656;2023-07-28T04:59:25;99350.92;;;39.91;19.99
75852;BME280;64500;52.632;20.656;2023-07-28T05:01:56;99351.51;;;40.00;19.90
75852;BME280;64500;52.632;20.656;2023-07-28T05:04:33;99347.27;;;40.06;19.98
75852;BME280;64500;52.632;20.656;2023-07-28T05:07:03;99348.23;;;40.16;20.12
75852;BME280;64500;52.632;20.656;2023-07-28T05:09:32;99355.86;;;40.37;19.82
75852;BME280;64500;52.632;20.656;2023-07-28T05:12:07;99358.51;;;40.52;19.96
75852;BME280;64500;52.632;20.656;2023-07-28T05:14:35;99358.26;;;40.58;19.83
75852;BME280;64500;52.632;20.656;2023-07-28T05:17:05;99356.02;;;40.61;19.74
75852;BME280;64500;52.632;20.656;2023-07-28T05:19:35;99356.15;;;40.69;19.70
75852;BME280;64500;52.632;20.656;2023-07-28T05:22:02;99352.98;;;40.73;19.84
75852;BME280;64500;52.632;20.656;2023-07-28T05:24:33;99349.00;;;40.86;19.89
75852;BME280;64500;52.632;20.656;2023-07-28T05:27:02;99345.90;;;41.06;19.84
75852;BME280;64500;52.632;20.656;2023-07-28T05:29:32;99341.02;;;41.29;19.71
75852;BME280;64500;52.632;20.656;2023-07-28T05:32:01;99347.52;;;41.59;19.60
75852;BME280;64500;52.632;20.656;2023-07-28T05:34:28;99348.87;;;41.95;19.52
75852;BME280;64500;52.632;20.656;2023-07-28T05:36:54;99343.71;;;42.23;19.49
75852;BME280;64500;52.632;20.656;2023-07-28T05:39:21;99343.20;;;42.52;19.28
75852;BME280;64500;52.632;20.656;2023-07-28T05:41:48;99345.70;;;42.79;19.16
75852;BME280;64500;52.632;20.656;2023-07-28T05:44:15;99340.77;;;43.07;19.18
75852;BME280;64500;52.632;20.656;2023-07-28T05:46:44;99341.04;;;43.25;18.96
75852;BME280;64500;52.632;20.656;2023-07-28T05:49:12;99341.16;;;43.43;18.74
75852;BME280;64500;52.632;20.656;2023-07-28T05:51:41;99345.95;;;43.49;18.61
75852;BME280;64500;52.632;20.656;2023-07-28T05:54:11;99348.23;;;43.41;18.10
75852;BME280;64500;52.632;20.656;2023-07-28T05:56:41;99345.05;;;43.45;18.13
75852;BME280;64500;52.632;20.656;2023-07-28T05:59:09;99344.56;;;43.49;18.17
75852;BME280;64500;52.632;20.656;2023-07-28T06:01:38;99340.21;;;43.41;18.24
75852;BME280;64500;52.632;20.656;2023-07-28T06:04:05;99340.02;;;43.26;18.11
75852;BME280;64500;52.632;20.656;2023-07-28T06:06:32;99339.52;;;43.18;18.31
75852;BME280;64500;52.632;20.656;2023-07-28T06:08:58;99338.21;;;43.14;18.49
75852;BME280;64500;52.632;20.656;2023-07-28T06:11:25;99336.08;;;43.08;18.25
75852;BME280;64500;52.632;20.656;2023-07-28T06:13:56;99334.21;;;43.02;18.27
75852;BME280;64500;52.632;20.656;2023-07-28T06:16:25;99334.39;;;43.05;18.60
75852;BME280;64500;52.632;20.656;2023-07-28T06:18:56;99332.51;;;43.04;18.25
75852;BME280;64500;52.632;20.656;2023-07-28T06:21:25;99329.09;;;43.01;18.09
75852;BME280;64500;52.632;20.656;2023-07-28T06:23:52;99327.26;;;43.03;18.45
75852;BME280;64500;52.632;20.656;2023-07-28T06:26:19;99326.29;;;43.16;18.36
75852;BME280;64500;52.632;20.656;2023-07-28T06:28:48;99323.69;;;43.31;18.52
75852;BME280;64500;52.632;20.656;2023-07-28T06:31:20;99326.92;;;43.46;18.17
75852;BME280;64500;52.632;20.656;2023-07-28T06:33:47;99328.90;;;43.57;18.15
75852;BME280;64500;52.632;20.656;2023-07-28T06:36:14;99327.39;;;43.70;18.08
75852;BME280;64500;52.632;20.656;2023-07-28T06:38:44;99318.81;;;43.82;17.90
75852;BME280;64500;52.632;20.656;2023-07-28T06:41:15;99313.73;;;43.98;17.79
75852;BME280;64500;52.632;20.656;2023-07-28T06:43:42;99318.52;;;43.99;17.94
75852;BME280;64500;52.632;20.656;2023-07-28T06:46:09;99313.04;;;44.25;17.99
75852;BME280;64500;52.632;20.656;2023-07-28T06:48:36;99312.38;;;44.54;17.75
75852;BME280;64500;52.632;20.656;2023-07-28T06:51:05;99314.05;;;44.88;17.88
75852;BME280;64500;52.632;20.656;2023-07-28T06:53:32;99312.48;;;45.29;17.69
75852;BME280;64500;52.632;20.656;2023-07-28T06:56:01;99312.48;;;45.65;17.28
75852;BME280;64500;52.632;20.656;2023-07-28T06:58:30;99317.21;;;45.78;17.27
75852;BME280;64500;52.632;20.656;2023-07-28T07:00:57;99315.84;;;46.04;17.25
75852;BME280;64500;52.632;20.656;2023-07-28T07:03:27;99321.58;;;46.32;16.94
75852;BME280;64500;52.632;20.656;2023-07-28T07:05:56;99314.70;;;46.37;16.70
75852;BME280;64500;52.632;20.656;2023-07-28T07:08:25;99313.48;;;46.40;16.83
75852;BME280;64500;52.632;20.656;2023-07-28T07:10:53;99314.46;;;46.65;16.53
75852;BME280;64500;52.632;20.656;2023-07-28T07:13:22;99317.95;;;46.84;16.42
75852;BME280;64500;52.632;20.656;2023-07-28T07:15:49;99318.56;;;46.96;16.27
75852;BME280;64500;52.632;20.656;2023-07-28T07:18:16;99317.24;;;47.05;16.01
75852;BME280;64500;52.632;20.656;2023-07-28T07:20:43;99314.49;;;47.31;15.90
75852;BME280;64500;52.632;20.656;2023-07-28T07:23:11;99317.45;;;47.22;15.98
75852;BME280;64500;52.632;20.656;2023-07-28T07:25:40;99317.45;;;47.08;16.04
75852;BME280;64500;52.632;20.656;2023-07-28T07:28:07;99313.21;;;47.31;15.87
75852;BME280;64500;52.632;20.656;2023-07-28T07:30:34;99310.20;;;47.36;15.93
75852;BME280;64500;52.632;20.656;2023-07-28T07:33:00;99313.92;;;47.42;15.92
75852;BME280;64500;52.632;20.656;2023-07-28T07:35:27;99319.02;;;47.37;15.71
75852;BME280;64500;52.632;20.656;2023-07-28T07:37:56;99331.56;;;47.06;15.53
75852;BME280;64500;52.632;20.656;2023-07-28T07:40:23;99337.40;;;46.56;15.50
75852;BME280;64500;52.632;20.656;2023-07-28T07:42:50;99333.64;;;46.02;15.81
75852;BME280;64500;52.632;20.656;2023-07-28T07:45:18;99331.81;;;45.86;16.06
75852;BME280;64500;52.632;20.656;2023-07-28T07:47:45;99336.52;;;45.94;16.19
75852;BME280;64500;52.632;20.656;2023-07-28T07:50:15;99333.87;;;45.45;16.24
75852;BME280;64500;52.632;20.656;2023-07-28T07:52:42;99335.01;;;45.27;16.51
75852;BME280;64500;52.632;20.656;2023-07-28T07:55:09;99335.30;;;45.39;16.74
75852;BME280;64500;52.632;20.656;2023-07-28T07:57:42;99336.02;;;45.33;16.77
75852;BME280;64500;52.632;20.656;2023-07-28T08:00:10;99342.55;;;45.13;16.96
75852;BME280;64500;52.632;20.656;2023-07-28T08:02:37;99343.47;;;44.97;16.79
75852;BME280;64500;52.632;20.656;2023-07-28T08:05:04;99341.58;;;44.60;16.99
75852;BME280;64500;52.632;20.656;2023-07-28T08:07:31;99342.91;;;44.34;17.23
75852;BME280;64500;52.632;20.656;2023-07-28T08:09:58;99341.67;;;44.12;17.36
75852;BME280;64500;52.632;20.656;2023-07-28T08:12:27;99337.02;;;43.90;17.56
75852;BME280;64500;52.632;20.656;2023-07-28T08:15:01;99330.45;;;43.67;17.85
75852;BME280;64500;52.632;20.656;2023-07-28T08:17:31;99326.26;;;43.41;18.00
75852;BME280;64500;52.632;20.656;2023-07-28T08:20:00;99320.62;;;43.31;18.58
75852;BME280;64500;52.632;20.656;2023-07-28T08:22:27;99322.30;;;43.06;18.60
75852;BME280;64500;52.632;20.656;2023-07-28T08:24:54;99316.88;;;42.75;18.61
75852;BME280;64500;52.632;20.656;2023-07-28T08:27:23;99320.27;;;42.63;18.93
75852;BME280;64500;52.632;20.656;2023-07-28T08:29:50;99320.45;;;42.38;19.41
75852;BME280;64500;52.632;20.656;2023-07-28T08:32:20;99320.46;;;42.38;19.32
75852;BME280;64500;52.632;20.656;2023-07-28T08:34:48;99321.42;;;42.22;19.15
75852;BME280;64500;52.632;20.656;2023-07-28T08:37:15;99315.48;;;41.89;19.28
75852;BME280;64500;52.632;20.656;2023-07-28T08:39:48;99319.10;;;41.75;19.62
75852;BME280;64500;52.632;20.656;2023-07-28T08:42:14;99318.64;;;41.64;19.92
75852;BME280;64500;52.632;20.656;2023-07-28T08:44:43;99315.46;;;41.50;19.95
75852;BME280;64500;52.632;20.656;2023-07-28T08:47:12;99316.88;;;41.47;20.16
75852;BME280;64500;52.632;20.656;2023-07-28T08:49:39;99312.39;;;41.54;19.99
75852;BME280;64500;52.632;20.656;2023-07-28T08:52:06;99319.10;;;41.41;20.05
75852;BME280;64500;52.632;20.656;2023-07-28T08:54:36;99318.39;;;41.24;20.26
75852;BME280;64500;52.632;20.656;2023-07-28T08:57:03;99317.92;;;41.09;20.30
75852;BME280;64500;52.632;20.656;2023-07-28T08:59:30;99317.05;;;41.11;20.37
75852;BME280;64500;52.632;20.656;2023-07-28T09:01:57;99314.62;;;41.18;20.46
75852;BME280;64500;52.632;20.656;2023-07-28T09:04:26;99311.11;;;41.25;20.48
75852;BME280;64500;52.632;20.656;2023-07-28T09:06:53;99312.64;;;41.46;20.74
75852;BME280;64500;52.632;20.656;2023-07-28T09:09:21;99311.21;;;41.69;20.95
75852;BME280;64500;52.632;20.656;2023-07-28T09:11:52;99308.42;;;41.99;20.66
75852;BME280;64500;52.632;20.656;2023-07-28T09:14:20;99307.79;;;42.25;20.91
75852;BME280;64500;52.632;20.656;2023-07-28T09:16:48;99308.18;;;42.49;20.61
75852;BME280;64500;52.632;20.656;2023-07-28T09:19:14;99300.33;;;42.80;20.52
75852;BME280;64500;52.632;20.656;2023-07-28T09:21:44;99303.27;;;43.01;20.61
75852;BME280;64500;52.632;20.656;2023-07-28T09:24:13;99304.39;;;43.26;20.42
75852;BME280;64500;52.632;20.656;2023-07-28T09:26:43;99300.70;;;43.59;20.18
75852;BME280;64500;52.632;20.656;2023-07-28T09:29:13;99298.89;;;43.83;20.13
75852;BME280;64500;52.632;20.656;2023-07-28T09:31:41;99295.36;;;43.95;19.92
75852;BME280;64500;52.632;20.656;2023-07-28T09:34:12;99292.27;;;43.92;19.94
75852;BME280;64500;52.632;20.656;2023-07-28T09:36:40;99296.76;;;43.83;19.89
75852;BME280;64500;52.632;20.656;2023-07-28T09:39:07;99298.08;;;43.65;19.91
75852;BME280;64500;52.632;20.656;2023-07-28T09:41:37;99286.98;;;43.34;20.11
75852;BME280;64500;52.632;20.656;2023-07-28T09:44:04;99290.90;;;43.12;20.25
75852;BME280;64500;52.632;20.656;2023-07-28T09:46:32;99289.44;;;42.91;20.12
75852;BME280;64500;52.632;20.656;2023-07-28T09:49:00;99287.48;;;42.71;20.37
75852;BME280;64500;52.632;20.656;2023-07-28T09:51:38;99284.38;;;42.58;20.54
75852;BME280;64500;52.632;20.656;2023-07-28T09:54:16;99284.93;;;42.60;20.78
75852;BME280;64500;52.632;20.656;2023-07-28T09:56:49;99290.46;;;42.45;20.80
75852;BME280;64500;52.632;20.656;2023-07-28T09:59:29;99285.17;;;42.48;20.74
75852;BME280;64500;52.632;20.656;2023-07-28T10:01:58;99285.98;;;42.36;20.95
75852;BME280;64500;52.632;20.656;2023-07-28T10:04:26;99279.41;;;42.32;21.03
75852;BME280;64500;52.632;20.656;2023-07-28T10:06:56;99278.04;;;42.36;21.02
75852;BME280;64500;52.632;20.656;2023-07-28T10:09:28;99282.66;;;42.33;20.99
75852;BME280;64500;52.632;20.656;2023-07-28T10:11:57;99284.15;;;42.44;20.82
75852;BME280;64500;52.632;20.656;2023-07-28T10:14:27;99282.05;;;42.86;20.83
75852;BME280;64500;52.632;20.656;2023-07-28T10:17:01;99283.25;;;43.37;20.92
75852;BME280;64500;52.632;20.656;2023-07-28T10:19:34;99280.08;;;44.19;21.15
75852;BME280;64500;52.632;20.656;2023-07-28T10:22:08;99273.83;;;44.99;20.47
75852;BME280;64500;52.632;20.656;2023-07-28T10:24:54;99279.23;;;45.79;20.37
75852;BME280;64500;52.632;20.656;2023-07-28T10:27:34;99285.50;;;46.54;20.17
75852;BME280;64500;52.632;20.656;2023-07-28T10:30:07;99278.78;;;46.71;19.52
75852;BME280;64500;52.632;20.656;2023-07-28T10:32:38;99280.54;;;46.64;19.33
75852;BME280;64500;52.632;20.656;2023-07-28T10:35:24;99274.56;;;46.66;19.26
75852;BME280;64500;52.632;20.656;2023-07-28T10:37:52;99272.95;;;46.53;19.11
75852;BME280;64500;52.632;20.656;2023-07-28T10:42:58;99267.11;;;45.61;18.84
75852;BME280;64500;52.632;20.656;2023-07-28T10:45:33;99258.36;;;45.25;18.75
75852;BME280;64500;52.632;20.656;2023-07-28T10:48:09;99261.10;;;45.02;18.78
75852;BME280;64500;52.632;20.656;2023-07-28T10:50:36;99255.74;;;44.77;19.16
75852;BME280;64500;52.632;20.656;2023-07-28T10:53:17;99252.05;;;44.78;19.15
75852;BME280;64500;52.632;20.656;2023-07-28T10:55:46;99256.77;;;44.84;19.36
75852;BME280;64500;52.632;20.656;2023-07-28T10:58:16;99259.35;;;44.91;19.26
75852;BME280;64500;52.632;20.656;2023-07-28T11:00:46;99257.81;;;44.86;19.38
75852;BME280;64500;52.632;20.656;2023-07-28T11:03:16;99257.40;;;45.02;19.46
75852;BME280;64500;52.632;20.656;2023-07-28T11:05:43;99256.25;;;45.24;19.42
75852;BME280;64500;52.632;20.656;2023-07-28T11:08:16;99255.31;;;45.30;19.55
75852;BME280;64500;52.632;20.656;2023-07-28T11:10:51;99256.11;;;45.39;19.43
75852;BME280;64500;52.632;20.656;2023-07-28T11:13:18;99250.84;;;45.48;19.38
75852;BME280;64500;52.632;20.656;2023-07-28T11:15:48;99246.20;;;45.40;19.04
75852;BME280;64500;52.632;20.656;2023-07-28T11:18:16;99248.55;;;45.29;19.24
75852;BME280;64500;52.632;20.656;2023-07-28T11:23:30;99248.97;;;44.78;19.40
75852;BME280;64500;52.632;20.656;2023-07-28T11:26:10;99246.05;;;44.59;19.25
75852;BME280;64500;52.632;20.656;2023-07-28T11:28:40;99241.02;;;44.42;19.61
75852;BME280;64500;52.632;20.656;2023-07-28T11:31:08;99243.54;;;44.81;19.63
75852;BME280;64500;52.632;20.656;2023-07-28T11:33:35;99239.95;;;44.91;19.62
75852;BME280;64500;52.632;20.656;2023-07-28T11:36:04;99238.95;;;44.89;19.84
75852;BME280;64500;52.632;20.656;2023-07-28T11:38:32;99237.81;;;45.19;20.19
75852;BME280;64500;52.632;20.656;2023-07-28T11:41:00;99238.52;;;45.70;20.14
75852;BME280;64500;52.632;20.656;2023-07-28T11:43:31;99239.13;;;46.28;20.31
75852;BME280;64500;52.632;20.656;2023-07-28T11:46:01;99229.90;;;47.14;20.11
75852;BME280;64500;52.632;20.656;2023-07-28T11:48:29;99233.33;;;47.92;20.01
75852;BME280;64500;52.632;20.656;2023-07-28T11:50:57;99235.33;;;48.74;19.51
75852;BME280;64500;52.632;20.656;2023-07-28T11:53:27;99232.51;;;49.49;18.99
75852;BME280;64500;52.632;20.656;2023-07-28T11:55:59;99232.41;;;49.89;18.76
75852;BME280;64500;52.632;20.656;2023-07-28T11:58:30;99234.59;;;50.20;18.46
75852;BME280;64500;52.632;20.656;2023-07-28T12:00:57;99234.01;;;50.45;17.92
75852;BME280;64500;52.632;20.656;2023-07-28T12:03:29;99230.81;;;50.71;17.78
75852;BME280;64500;52.632;20.656;2023-07-28T12:06:03;99229.91;;;50.95;17.77
75852;BME280;64500;52.632;20.656;2023-07-28T12:08:38;99223.25;;;51.22;17.41
75852;BME280;64500;52.632;20.656;2023-07-28T12:11:14;99224.38;;;51.42;17.03
75852;BME280;64500;52.632;20.656;2023-07-28T12:13:51;99217.67;;;51.22;16.89
75852;BME280;64500;52.632;20.656;2023-07-28T12:19:16;99227.73;;;50.19;16.62
75852;BME280;64500;52.632;20.656;2023-07-28T12:21:45;99225.70;;;49.76;17.04
75852;BME280;64500;52.632;20.656;2023-07-28T12:24:12;99223.30;;;49.37;16.93
75852;BME280;64500;52.632;20.656;2023-07-28T12:26:39;99220.16;;;48.97;17.34
75852;BME280;64500;52.632;20.656;2023-07-28T12:29:06;99217.77;;;48.67;17.26
75852;BME280;64500;52.632;20.656;2023-07-28T12:31:33;99221.41;;;48.51;17.46
75852;BME280;64500;52.632;20.656;2023-07-28T12:34:02;99219.36;;;48.24;17.47
75852;BME280;64500;52.632;20.656;2023-07-28T12:36:29;99224.31;;;48.16;17.99
75852;BME280;64500;52.632;20.656;2023-07-28T12:38:56;99225.05;;;47.91;17.66
75852;BME280;64500;52.632;20.656;2023-07-28T12:41:23;99229.64;;;47.64;18.09
75852;BME280;64500;52.632;20.656;2023-07-28T12:43:53;99227.43;;;47.47;17.97
75852;BME280;64500;52.632;20.656;2023-07-28T12:46:23;99224.99;;;47.29;18.31
75852;BME280;64500;52.632;20.656;2023-07-28T12:48:50;99231.76;;;47.25;18.32
75852;BME280;64500;52.632;20.656;2023-07-28T12:51:27;99231.61;;;47.10;18.48
75852;BME280;64500;52.632;20.656;2023-07-28T12:54:04;99231.58;;;46.61;18.36
75852;BME280;64500;52.632;20.656;2023-07-28T12:56:32;99233.02;;;46.03;18.57
75852;BME280;64500;52.632;20.656;2023-07-28T12:59:02;99235.10;;;46.03;19.00
75852;BME280;64500;52.632;20.656;2023-07-28T13:01:32;99233.38;;;46.31;19.12
75852;BME280;64500;52.632;20.656;2023-07-28T13:03:58;99236.61;;;46.54;19.13
75852;BME280;64500;52.632;20.656;2023-07-28T13:06:29;99235.86;;;46.79;19.22
75852;BME280;64500;52.632;20.656;2023-07-28T13:08:56;99238.31;;;46.84;18.76